Time;durP1;ratioP1;P1;durP2;ratioP2;P2;SDS_P1;SDS_P2;PMS_P1;PMS_P2;Temp;Humidity;BMP_temperature;BMP_pressure;BME280_temperature;BME280_humidity;BME280_pressure;Samples;Min_cycle;Max_cycle;Signal;HPM_P1;HPM_P2
2021/12/15 00:00:20;;;;;;;73.07;29.10;;;8.80;99.90;;;;;;5067780;28;20188;-65
2021/12/15 00:02:53;;;;;;;70.23;29.97;;;8.70;99.90;;;;;;5069327;28;20206;-65
2021/12/15 00:05:23;;;;;;;68.23;30.37;;;8.80;99.90;;;;;;5069244;28;20203;-65
2021/12/15 00:07:55;;;;;;;71.17;29.93;;;8.70;99.90;;;;;;5068309;28;20208;-65
2021/12/15 00:10:26;;;;;;;70.70;30.50;;;8.80;99.90;;;;;;5068821;28;20548;-65
2021/12/15 00:12:55;;;;;;;81.73;31.13;;;8.80;99.90;;;;;;5075624;28;20204;-65
2021/12/15 00:15:27;;;;;;;73.93;31.43;;;8.80;99.90;;;;;;5069773;28;20192;-65
2021/12/15 00:18:01;;;;;;;74.47;30.90;;;8.70;99.90;;;;;;5071336;28;20611;-65
2021/12/15 00:20:30;;;;;;;75.30;31.47;;;8.80;99.90;;;;;;5064809;28;20229;-64
2021/12/15 00:22:59;;;;;;;76.80;32.93;;;8.80;99.90;;;;;;5080219;28;20242;-65
2021/12/15 00:25:31;;;;;;;76.87;31.43;;;8.70;99.90;;;;;;5070856;28;20220;-64
2021/12/15 00:28:00;;;;;;;73.30;30.57;;;8.80;99.90;;;;;;5066671;28;20306;-65
2021/12/15 00:30:29;;;;;;;82.83;32.70;;;8.70;99.90;;;;;;5069517;28;20196;-65
2021/12/15 00:32:59;;;;;;;82.80;33.27;;;8.80;99.90;;;;;;5068808;28;20250;-65
2021/12/15 00:35:28;;;;;;;86.33;32.97;;;8.80;99.90;;;;;;5066224;28;20680;-64
2021/12/15 00:37:57;;;;;;;78.90;32.13;;;8.70;99.90;;;;;;5069952;28;20267;-65
2021/12/15 00:40:26;;;;;;;82.80;33.53;;;8.80;99.90;;;;;;5071094;28;20306;-65
2021/12/15 00:42:56;;;;;;;81.83;32.60;;;8.70;99.90;;;;;;5071715;28;20258;-65
2021/12/15 00:45:26;;;;;;;79.77;32.37;;;8.70;99.90;;;;;;5072038;28;20196;-65
2021/12/15 00:47:56;;;;;;;79.27;32.77;;;8.70;99.90;;;;;;5072156;28;20775;-65
2021/12/15 00:50:32;;;;;;;89.53;34.30;;;8.70;99.90;;;;;;5075252;28;20204;-65
2021/12/15 00:53:01;;;;;;;89.53;34.30;;;8.70;99.90;;;;;;5071890;28;20195;-65
2021/12/15 00:55:30;;;;;;;86.50;33.80;;;8.70;99.90;;;;;;5069613;28;20193;-65
2021/12/15 00:58:01;;;;;;;92.17;35.13;;;8.70;99.90;;;;;;5070020;28;20905;-64
2021/12/15 01:00:33;;;;;;;88.77;35.13;;;8.70;99.90;;;;;;5067269;28;20702;-64
2021/12/15 01:03:12;;;;;;;98.83;35.87;;;8.70;99.90;;;;;;5063611;28;20246;-65
2021/12/15 01:06:21;;;;;;;99.03;35.70;;;8.70;99.90;;;;;;5069430;28;20302;-64
2021/12/15 01:08:55;;;;;;;90.27;33.87;;;8.70;99.90;;;;;;5051978;28;20245;-65
2021/12/15 01:11:33;;;;;;;102.93;36.47;;;8.70;99.90;;;;;;5064330;28;20196;-65
2021/12/15 01:19:51;;;;;;;105.37;36.10;;;8.60;99.90;;;;;;5065757;28;20242;-64
2021/12/15 01:22:31;;;;;;;104.90;36.63;;;8.70;99.90;;;;;;5068655;28;20211;-65
2021/12/15 01:25:02;;;;;;;102.73;35.60;;;8.70;99.90;;;;;;5067498;28;20230;-64
2021/12/15 01:27:31;;;;;;;102.57;35.07;;;8.70;99.90;;;;;;5075490;28;20609;-65
2021/12/15 01:29:59;;;;;;;96.30;35.30;;;8.70;99.90;;;;;;5069759;28;20873;-65
2021/12/15 01:32:28;;;;;;;95.03;35.23;;;8.70;99.90;;;;;;5063384;28;20271;-65
2021/12/15 01:34:57;;;;;;;109.10;36.87;;;8.70;99.90;;;;;;5070115;28;20231;-64
2021/12/15 01:37:26;;;;;;;102.43;35.67;;;8.60;99.90;;;;;;5069803;28;20196;-64
2021/12/15 01:39:56;;;;;;;98.83;34.83;;;8.60;99.90;;;;;;5069726;28;20203;-65
2021/12/15 01:42:28;;;;;;;111.37;34.80;;;8.70;99.90;;;;;;5068085;28;20261;-65
2021/12/15 01:47:43;;;;;;;107.70;36.97;;;8.60;99.90;;;;;;5082882;28;20558;-64
2021/12/15 01:50:13;;;;;;;103.50;34.80;;;8.60;99.90;;;;;;5068912;28;20282;-64
2021/12/15 01:52:43;;;;;;;101.30;34.37;;;8.60;99.90;;;;;;5069187;28;20283;-65
2021/12/15 01:55:16;;;;;;;105.93;35.47;;;8.70;99.90;;;;;;5069309;28;20196;-65
2021/12/15 01:57:44;;;;;;;101.33;35.87;;;8.70;99.90;;;;;;5077796;28;20322;-64
2021/12/15 02:00:17;;;;;;;92.00;33.50;;;8.70;99.90;;;;;;5081495;28;20689;-64
2021/12/15 02:02:46;;;;;;;95.77;34.00;;;8.70;99.90;;;;;;5067172;28;20204;-65
2021/12/15 02:05:15;;;;;;;95.63;34.37;;;8.70;99.90;;;;;;5067080;28;20192;-64
2021/12/15 02:07:47;;;;;;;93.93;33.43;;;8.60;99.90;;;;;;5071145;28;20208;-64
2021/12/15 02:10:16;;;;;;;95.77;34.13;;;8.60;99.90;;;;;;5064365;28;20216;-64
2021/12/15 02:13:04;;;;;;;95.50;32.37;;;8.60;99.90;;;;;;5074682;28;20212;-64
2021/12/15 02:15:36;;;;;;;91.23;33.60;;;8.60;99.90;;;;;;5078116;28;20219;-64
2021/12/15 02:18:06;;;;;;;98.20;34.57;;;8.60;99.90;;;;;;5067828;28;20223;-64
2021/12/15 02:20:39;;;;;;;89.07;32.90;;;8.70;99.90;;;;;;5069050;28;20195;-64
2021/12/15 02:23:10;;;;;;;87.23;31.97;;;8.60;99.90;;;;;;5070324;28;20212;-64
2021/12/15 02:25:41;;;;;;;91.07;32.40;;;8.70;99.90;;;;;;5081670;28;20223;-64
2021/12/15 02:28:11;;;;;;;82.67;31.23;;;8.70;99.90;;;;;;5069681;28;20729;-65
2021/12/15 02:30:50;;;;;;;81.00;30.40;;;8.70;99.90;;;;;;5069590;28;20231;-64
2021/12/15 02:33:44;;;;;;;81.00;31.53;;;8.70;99.90;;;;;;5066373;28;20629;-64
2021/12/15 02:39:05;;;;;;;70.07;27.90;;;8.60;99.90;;;;;;5064409;28;20200;-64
2021/12/15 02:41:34;;;;;;;74.93;29.50;;;8.70;99.90;;;;;;5066028;28;20747;-64
2021/12/15 02:44:08;;;;;;;79.13;28.93;;;8.70;99.90;;;;;;5059602;28;20200;-64
2021/12/15 02:46:38;;;;;;;76.30;29.20;;;8.60;99.90;;;;;;5068001;28;20200;-64
2021/12/15 02:49:09;;;;;;;80.73;30.60;;;8.60;99.90;;;;;;5065334;28;20200;-64
2021/12/15 02:51:41;;;;;;;78.07;30.23;;;8.60;99.90;;;;;;5065936;28;20259;-64
2021/12/15 02:54:12;;;;;;;76.43;28.80;;;8.60;99.90;;;;;;5067103;28;20786;-65
2021/12/15 02:56:41;;;;;;;83.50;30.97;;;8.70;99.90;;;;;;5067529;28;20275;-65
2021/12/15 02:59:11;;;;;;;83.77;29.83;;;8.70;99.90;;;;;;5078349;28;20739;-64
2021/12/15 03:02:01;;;;;;;72.37;29.00;;;8.70;99.90;;;;;;5067416;28;20219;-64
2021/12/15 03:04:39;;;;;;;79.67;29.93;;;8.70;99.90;;;;;;5070845;28;20245;-64
2021/12/15 03:07:23;;;;;;;80.83;29.63;;;8.70;99.90;;;;;;5066334;28;20228;-65
2021/12/15 03:15:35;;;;;;;78.83;30.17;;;8.70;99.90;;;;;;5067631;28;20207;-65
2021/12/15 03:18:15;;;;;;;75.77;29.77;;;8.70;99.90;;;;;;5060043;28;20187;-64
2021/12/15 03:20:49;;;;;;;74.30;30.10;;;8.70;99.90;;;;;;5067920;28;20274;-64
2021/12/15 03:23:24;;;;;;;76.47;29.93;;;8.70;99.90;;;;;;5070075;28;20808;-64
2021/12/15 03:25:53;;;;;;;75.97;29.77;;;8.70;99.90;;;;;;5057895;28;20644;-64
2021/12/15 03:34:10;;;;;;;70.90;28.63;;;8.70;99.90;;;;;;5060516;28;20197;-64
2021/12/15 03:37:21;;;;;;;73.80;29.47;;;8.70;99.90;;;;;;5063843;28;20223;-64
2021/12/15 03:39:54;;;;;;;73.07;30.50;;;8.70;99.90;;;;;;5061713;28;20212;-65
2021/12/15 03:42:28;;;;;;;73.40;29.80;;;8.70;99.90;;;;;;5066052;28;20291;-65
2021/12/15 03:44:59;;;;;;;75.73;30.60;;;8.70;99.90;;;;;;5064733;28;20192;-65
2021/12/15 03:47:30;;;;;;;72.93;29.23;;;8.80;99.90;;;;;;5068232;28;20717;-64
2021/12/15 03:50:00;;;;;;;71.23;29.83;;;8.80;99.90;;;;;;5082401;28;20219;-65
2021/12/15 03:52:29;;;;;;;69.63;29.23;;;8.80;99.90;;;;;;5063447;28;20228;-64
2021/12/15 03:54:59;;;;;;;70.67;30.10;;;8.80;99.90;;;;;;5079899;28;20281;-65
2021/12/15 03:57:27;;;;;;;70.27;29.43;;;8.70;99.90;;;;;;5068260;28;20203;-64
2021/12/15 03:59:58;;;;;;;79.30;31.13;;;8.80;99.90;;;;;;5066927;28;20220;-64
2021/12/15 04:02:27;;;;;;;73.90;30.17;;;8.70;99.90;;;;;;5067068;28;20199;-64
2021/12/15 04:04:56;;;;;;;80.97;31.87;;;8.70;99.90;;;;;;5066426;28;20207;-65
2021/12/15 04:07:24;;;;;;;82.70;32.07;;;8.70;99.90;;;;;;5065350;28;20660;-65
2021/12/15 04:09:53;;;;;;;80.70;32.47;;;8.70;99.90;;;;;;5075661;28;20228;-64
2021/12/15 04:12:24;;;;;;;82.73;32.77;;;8.70;99.90;;;;;;5070386;28;20196;-64
2021/12/15 04:15:07;;;;;;;84.13;32.80;;;8.80;99.90;;;;;;5087233;28;20191;-65
2021/12/15 04:17:36;;;;;;;84.93;34.03;;;8.80;99.90;;;;;;5066674;28;20184;-64
2021/12/15 04:20:09;;;;;;;85.17;33.20;;;8.80;99.90;;;;;;5072664;28;20184;-64
2021/12/15 04:22:37;;;;;;;82.70;32.43;;;8.80;99.90;;;;;;5074415;28;20711;-65
2021/12/15 04:25:09;;;;;;;87.47;34.70;;;8.80;99.90;;;;;;5073027;28;20200;-65
2021/12/15 04:27:40;;;;;;;88.00;34.70;;;8.80;99.90;;;;;;5052531;28;20193;-64
2021/12/15 04:30:11;;;;;;;86.13;34.00;;;8.80;99.90;;;;;;5070013;28;20216;-65
2021/12/15 04:32:44;;;;;;;77.63;31.93;;;8.80;99.90;;;;;;5074337;28;20228;-65
2021/12/15 04:35:15;;;;;;;91.30;34.03;;;8.90;99.90;;;;;;5071873;28;20684;-64
2021/12/15 04:37:45;;;;;;;88.23;34.67;;;8.90;99.90;;;;;;5067366;28;20676;-65
2021/12/15 04:40:15;;;;;;;80.40;32.97;;;8.80;99.90;;;;;;5069965;28;20285;-65
2021/12/15 04:42:45;;;;;;;83.53;33.03;;;8.90;99.90;;;;;;5073947;28;20242;-65
2021/12/15 04:45:16;;;;;;;82.27;32.17;;;8.90;99.90;;;;;;5071885;28;20184;-64
2021/12/15 04:47:50;;;;;;;73.73;30.57;;;8.90;99.90;;;;;;5065779;28;20195;-65
2021/12/15 04:50:20;;;;;;;72.20;31.63;;;9.00;99.90;;;;;;5070546;28;20703;-65
2021/12/15 04:52:49;;;;;;;73.13;30.97;;;9.00;99.90;;;;;;5069359;28;20237;-64
2021/12/15 04:55:20;;;;;;;80.30;33.03;;;9.00;99.90;;;;;;5069212;28;20238;-64
2021/12/15 04:57:50;;;;;;;76.00;31.90;;;9.00;99.90;;;;;;5070269;28;20276;-64
2021/12/15 05:00:22;;;;;;;69.67;30.17;;;9.00;99.90;;;;;;5071654;28;20188;-65
2021/12/15 05:02:52;;;;;;;71.43;31.93;;;8.90;99.90;;;;;;5068623;28;20673;-65
2021/12/15 05:05:21;;;;;;;72.33;30.67;;;8.90;99.90;;;;;;5070911;28;20232;-65
2021/12/15 05:07:51;;;;;;;76.30;30.93;;;8.90;99.90;;;;;;5070750;28;20204;-65
2021/12/15 05:10:20;;;;;;;72.70;31.47;;;8.90;99.90;;;;;;5069724;28;20299;-65
2021/12/15 05:12:51;;;;;;;68.23;31.47;;;8.90;99.90;;;;;;5069315;28;20676;-65
2021/12/15 05:15:20;;;;;;;75.90;32.80;;;8.90;99.90;;;;;;5069242;28;20192;-65
2021/12/15 05:17:50;;;;;;;76.20;33.47;;;8.90;99.90;;;;;;5067705;28;20586;-64
2021/12/15 05:20:19;;;;;;;76.60;32.60;;;9.00;99.90;;;;;;5066755;28;20219;-64
2021/12/15 05:22:51;;;;;;;78.17;32.03;;;8.90;99.90;;;;;;5067643;28;20267;-65
2021/12/15 05:25:19;;;;;;;79.40;32.20;;;8.90;99.90;;;;;;5070435;28;20181;-65
2021/12/15 05:27:48;;;;;;;74.73;32.67;;;8.90;99.90;;;;;;5066297;28;20653;-65
2021/12/15 05:30:20;;;;;;;77.00;32.37;;;8.90;99.90;;;;;;5068223;28;20248;-64
2021/12/15 05:32:48;;;;;;;75.13;31.30;;;8.90;99.90;;;;;;5068724;28;20253;-65
2021/12/15 05:35:22;;;;;;;76.47;34.30;;;8.90;99.90;;;;;;5070830;28;20236;-65
2021/12/15 05:37:54;;;;;;;81.93;32.63;;;8.90;99.90;;;;;;5068379;28;20199;-64
2021/12/15 05:40:24;;;;;;;71.90;32.23;;;8.90;99.90;;;;;;5072085;28;20315;-64
2021/12/15 05:42:56;;;;;;;75.17;31.57;;;9.00;99.90;;;;;;5067391;28;20184;-64
2021/12/15 05:45:29;;;;;;;78.50;33.17;;;9.00;99.90;;;;;;5066544;28;20261;-64
2021/12/15 05:47:59;;;;;;;76.43;32.03;;;9.00;99.90;;;;;;5080075;28;20200;-65
2021/12/15 05:50:30;;;;;;;74.07;32.83;;;8.90;99.90;;;;;;5068258;28;20227;-65
2021/12/15 05:53:00;;;;;;;77.23;33.10;;;8.90;99.90;;;;;;5068739;28;20726;-64
2021/12/15 05:55:30;;;;;;;77.33;33.10;;;8.90;99.90;;;;;;5072827;28;20184;-64
2021/12/15 05:57:58;;;;;;;77.23;32.63;;;8.90;99.90;;;;;;5068715;28;20224;-64
2021/12/15 06:00:32;;;;;;;78.10;32.53;;;8.90;99.90;;;;;;5067534;28;20204;-64
2021/12/15 06:03:13;;;;;;;76.50;32.73;;;8.90;99.90;;;;;;5068044;28;20192;-64
2021/12/15 06:05:43;;;;;;;80.10;33.13;;;8.90;99.90;;;;;;5068281;28;20669;-64
2021/12/15 06:08:12;;;;;;;78.83;33.53;;;8.90;99.90;;;;;;5066266;28;20204;-64
2021/12/15 06:10:42;;;;;;;74.10;32.70;;;8.90;99.90;;;;;;5067886;28;20232;-64
2021/12/15 06:13:12;;;;;;;75.63;33.63;;;8.90;99.90;;;;;;5069082;28;20200;-65
2021/12/15 06:15:44;;;;;;;84.83;33.17;;;8.90;99.90;;;;;;5069373;28;20200;-64
2021/12/15 06:18:16;;;;;;;74.83;32.40;;;8.90;99.90;;;;;;5065060;28;20196;-64
2021/12/15 06:20:47;;;;;;;78.10;33.03;;;8.90;99.90;;;;;;5064437;28;20618;-64
2021/12/15 06:23:18;;;;;;;80.93;33.33;;;8.90;99.90;;;;;;5068466;28;20205;-64
2021/12/15 06:25:49;;;;;;;77.73;33.67;;;8.80;99.90;;;;;;5066026;28;20200;-64
2021/12/15 06:28:18;;;;;;;81.70;34.03;;;8.90;99.90;;;;;;5062630;28;20272;-64
2021/12/15 06:30:49;;;;;;;78.47;33.57;;;8.90;99.90;;;;;;5071701;28;20212;-64
2021/12/15 06:33:18;;;;;;;80.20;33.20;;;8.80;99.90;;;;;;5064450;28;20264;-64
2021/12/15 06:35:53;;;;;;;75.87;33.10;;;8.90;99.90;;;;;;5068184;28;20207;-64
2021/12/15 06:38:23;;;;;;;82.00;32.93;;;8.90;99.90;;;;;;5066854;28;20253;-64
2021/12/15 06:40:52;;;;;;;79.40;34.60;;;8.90;99.90;;;;;;5065527;28;20220;-64
2021/12/15 06:43:22;;;;;;;84.37;34.17;;;8.90;99.90;;;;;;5073137;28;20197;-65
2021/12/15 06:46:13;;;;;;;82.33;33.83;;;8.90;99.90;;;;;;5066835;28;20718;-64
2021/12/15 06:59:47;;;;;;;84.60;33.37;;;8.90;99.90;;;;;;5067633;28;20640;-64
2021/12/15 07:02:17;;;;;;;81.53;34.27;;;8.80;99.90;;;;;;5069414;28;20192;-64
2021/12/15 07:04:46;;;;;;;85.80;33.80;;;8.90;99.90;;;;;;5081143;28;20689;-64
2021/12/15 07:07:17;;;;;;;88.93;32.90;;;8.80;99.90;;;;;;5070766;28;20929;-64
2021/12/15 07:09:45;;;;;;;83.70;33.87;;;8.80;99.90;;;;;;5067396;28;20275;-64
2021/12/15 07:12:13;;;;;;;82.37;32.30;;;8.90;99.90;;;;;;5071817;28;20286;-64
2021/12/15 07:14:42;;;;;;;73.37;32.23;;;8.90;99.90;;;;;;5074834;28;20258;-64
2021/12/15 07:17:18;;;;;;;74.77;31.23;;;8.90;99.90;;;;;;5076722;28;20242;-64
2021/12/15 07:20:07;;;;;;;84.07;32.73;;;8.90;99.90;;;;;;5071836;28;20279;-65
2021/12/15 07:22:43;;;;;;;82.20;32.60;;;8.90;99.90;;;;;;5076516;28;20207;-65
2021/12/15 07:25:14;;;;;;;78.73;33.53;;;8.90;99.90;;;;;;5060874;28;20206;-64
2021/12/15 07:27:43;;;;;;;74.27;31.57;;;8.90;99.90;;;;;;5070775;28;20575;-65
2021/12/15 07:30:14;;;;;;;73.63;31.17;;;8.90;99.90;;;;;;5069101;28;20192;-64
2021/12/15 07:32:43;;;;;;;74.97;33.10;;;9.00;99.90;;;;;;5066097;28;20277;-64
2021/12/15 07:35:15;;;;;;;80.13;31.40;;;8.90;99.90;;;;;;5066667;28;20204;-64
2021/12/15 07:37:44;;;;;;;77.43;30.70;;;8.90;99.90;;;;;;5054183;28;20188;-65
2021/12/15 07:40:19;;;;;;;74.20;30.13;;;8.90;99.90;;;;;;5066641;28;20707;-64
2021/12/15 07:43:04;;;;;;;77.17;30.87;;;8.90;99.90;;;;;;5065192;28;20278;-64
2021/12/15 07:45:35;;;;;;;70.20;29.93;;;9.00;99.90;;;;;;5066042;28;20191;-64
2021/12/15 07:48:05;;;;;;;72.77;31.40;;;9.00;99.90;;;;;;5062411;28;20195;-64
2021/12/15 07:50:36;;;;;;;79.37;30.97;;;9.00;99.90;;;;;;5063157;28;20208;-64
2021/12/15 07:53:06;;;;;;;74.10;31.63;;;9.00;99.90;;;;;;5064554;28;20755;-64
2021/12/15 07:55:35;;;;;;;75.43;30.87;;;9.00;99.90;;;;;;5064972;28;20253;-64
2021/12/15 07:58:05;;;;;;;69.63;30.53;;;9.00;99.90;;;;;;5061739;28;20735;-65
2021/12/15 08:00:35;;;;;;;72.47;30.40;;;9.00;99.90;;;;;;5068958;28;20805;-64
2021/12/15 08:03:05;;;;;;;68.53;30.80;;;9.00;99.90;;;;;;5066662;28;20191;-65
2021/12/15 08:05:35;;;;;;;74.07;31.73;;;9.00;99.90;;;;;;5066455;28;20773;-65
2021/12/15 08:08:04;;;;;;;71.07;30.63;;;9.00;99.90;;;;;;5065001;28;20192;-65
2021/12/15 08:10:34;;;;;;;69.67;31.63;;;9.00;99.90;;;;;;5065390;28;20227;-65
2021/12/15 08:13:03;;;;;;;70.87;30.50;;;9.10;99.90;;;;;;5067988;28;20295;-65
2021/12/15 08:15:32;;;;;;;61.83;30.43;;;9.00;99.90;;;;;;5066143;28;20195;-65
2021/12/15 08:18:00;;;;;;;67.70;30.13;;;9.10;99.90;;;;;;5064295;28;20257;-64
2021/12/15 08:20:31;;;;;;;63.73;29.77;;;9.10;99.90;;;;;;5069269;28;20257;-64
2021/12/15 08:23:00;;;;;;;66.50;30.37;;;9.10;99.90;;;;;;5067532;28;20664;-65
2021/12/15 08:25:30;;;;;;;62.67;28.00;;;9.10;99.90;;;;;;5064821;28;20743;-65
2021/12/15 08:27:59;;;;;;;59.80;28.10;;;9.10;99.90;;;;;;5068185;28;20200;-65
2021/12/15 08:30:30;;;;;;;55.80;28.60;;;9.10;99.90;;;;;;5063842;28;20281;-65
2021/12/15 08:33:02;;;;;;;62.53;29.83;;;9.10;99.90;;;;;;5063861;28;20216;-64
2021/12/15 08:35:34;;;;;;;62.10;29.00;;;9.10;99.90;;;;;;5065223;28;20288;-65
2021/12/15 08:38:05;;;;;;;62.03;29.87;;;9.10;99.90;;;;;;5065819;28;20192;-64
2021/12/15 08:40:34;;;;;;;60.97;29.67;;;9.10;99.90;;;;;;5065658;28;20225;-65
2021/12/15 08:43:03;;;;;;;61.60;27.97;;;9.10;99.90;;;;;;5063474;28;20196;-65
2021/12/15 08:45:32;;;;;;;58.60;28.83;;;9.10;99.90;;;;;;5059503;28;20591;-64
2021/12/15 08:48:02;;;;;;;58.87;28.83;;;9.10;99.90;;;;;;5067893;28;20302;-65
2021/12/15 08:50:33;;;;;;;59.10;29.00;;;9.10;99.90;;;;;;5068921;28;20191;-64
2021/12/15 08:53:05;;;;;;;60.80;28.53;;;9.20;99.90;;;;;;5065606;28;20207;-64
2021/12/15 08:55:34;;;;;;;55.73;27.97;;;9.20;99.90;;;;;;5066305;28;20227;-65
2021/12/15 08:58:05;;;;;;;83.40;43.53;;;9.20;99.90;;;;;;5069480;28;20334;-65
2021/12/15 09:00:34;;;;;;;82.00;41.90;;;9.20;99.90;;;;;;5068583;28;20510;-65
2021/12/15 09:03:03;;;;;;;85.10;45.37;;;9.20;99.90;;;;;;5071876;28;20180;-65
2021/12/15 09:05:31;;;;;;;66.43;33.33;;;9.20;99.90;;;;;;5068438;28;20653;-65
2021/12/15 09:08:01;;;;;;;62.47;30.70;;;9.30;99.90;;;;;;5075618;28;20208;-64
2021/12/15 09:10:33;;;;;;;55.47;28.50;;;9.30;99.90;;;;;;5069177;28;20287;-64
2021/12/15 09:13:02;;;;;;;60.20;31.70;;;9.30;99.90;;;;;;5068139;28;20301;-64
2021/12/15 09:15:32;;;;;;;53.80;30.13;;;9.30;99.90;;;;;;5069104;28;20204;-64
2021/12/15 09:18:04;;;;;;;57.53;28.20;;;9.30;99.90;;;;;;5069061;28;20188;-64
2021/12/15 09:20:34;;;;;;;55.07;28.83;;;9.30;99.90;;;;;;5083684;28;20192;-65
2021/12/15 09:23:08;;;;;;;53.97;28.67;;;9.40;99.90;;;;;;5068840;28;20291;-65
2021/12/15 09:25:38;;;;;;;56.40;28.73;;;9.30;99.90;;;;;;5060611;28;20209;-64
2021/12/15 09:28:08;;;;;;;50.03;26.70;;;9.40;99.90;;;;;;5069162;28;20204;-65
2021/12/15 09:30:44;;;;;;;56.23;27.47;;;9.40;99.90;;;;;;5068776;28;20200;-65
2021/12/15 09:33:12;;;;;;;48.40;28.33;;;9.50;99.90;;;;;;5068287;28;20211;-65
2021/12/15 09:35:42;;;;;;;51.70;28.87;;;9.50;99.90;;;;;;5070337;28;20200;-65
2021/12/15 09:38:10;;;;;;;48.80;25.63;;;9.50;99.90;;;;;;5068787;28;20200;-65
2021/12/15 09:40:41;;;;;;;50.80;26.03;;;9.50;99.90;;;;;;5068940;28;20298;-65
2021/12/15 09:43:11;;;;;;;46.97;24.60;;;9.50;99.90;;;;;;5070475;28;20223;-65
2021/12/15 09:45:48;;;;;;;47.30;27.47;;;9.50;99.90;;;;;;5072239;28;20195;-65
2021/12/15 09:57:12;;;;;;;46.30;25.20;;;9.70;99.90;;;;;;5067357;28;20192;-65
2021/12/15 10:02:38;;;;;;;42.63;23.37;;;9.70;99.90;;;;;;5062891;28;20191;-65
2021/12/15 10:05:22;;;;;;;42.23;24.63;;;9.70;99.90;;;;;;5067766;28;20223;-64
2021/12/15 10:10:46;;;;;;;41.20;23.70;;;9.80;99.90;;;;;;5064952;28;20214;-64
2021/12/15 10:19:21;;;;;;;35.27;21.57;;;9.80;99.90;;;;;;5062477;28;20218;-64
2021/12/15 10:22:03;;;;;;;41.13;22.57;;;9.80;99.90;;;;;;5067168;28;20905;-65
2021/12/15 10:24:36;;;;;;;40.77;23.73;;;9.90;99.90;;;;;;5065077;28;20192;-65
2021/12/15 10:27:07;;;;;;;40.27;22.43;;;9.90;99.90;;;;;;5068905;28;20267;-65
2021/12/15 10:29:56;;;;;;;36.17;21.47;;;10.00;99.90;;;;;;5065995;28;20196;-65
2021/12/15 10:32:30;;;;;;;39.73;24.20;;;10.00;99.90;;;;;;5067786;28;20594;-65
2021/12/15 10:35:10;;;;;;;40.40;23.03;;;10.00;99.90;;;;;;5072193;28;20673;-65
2021/12/15 10:37:40;;;;;;;39.67;21.90;;;9.90;99.90;;;;;;5061983;28;20192;-65
2021/12/15 10:40:21;;;;;;;41.20;24.57;;;10.00;99.90;;;;;;5069220;28;20257;-65
2021/12/15 10:43:02;;;;;;;36.00;21.60;;;10.00;99.90;;;;;;5066388;28;20200;-65
2021/12/15 10:45:37;;;;;;;35.73;20.67;;;10.00;99.90;;;;;;5085757;28;20647;-65
2021/12/15 10:48:20;;;;;;;34.40;22.03;;;10.00;99.90;;;;;;5065919;28;20188;-65
2021/12/15 10:50:49;;;;;;;36.47;22.27;;;10.00;99.90;;;;;;5066579;28;20295;-65
2021/12/15 10:53:30;;;;;;;38.63;23.33;;;10.00;99.90;;;;;;5067596;28;20573;-65
2021/12/15 10:55:59;;;;;;;34.33;21.37;;;10.10;99.90;;;;;;5064878;28;20203;-65
2021/12/15 10:58:36;;;;;;;36.77;22.57;;;10.10;99.90;;;;;;5068697;28;20884;-65
2021/12/15 11:01:47;;;;;;;39.27;23.37;;;10.10;99.90;;;;;;5072837;28;20199;-65
2021/12/15 11:04:32;;;;;;;36.87;22.03;;;10.10;99.90;;;;;;5063048;28;20211;-64
2021/12/15 11:07:33;;;;;;;31.87;20.10;;;10.20;99.90;;;;;;5071045;28;20195;-65
2021/12/15 11:10:06;;;;;;;32.50;20.73;;;10.20;99.90;;;;;;5063665;28;20191;-65
2021/12/15 11:12:36;;;;;;;33.40;21.20;;;10.20;99.90;;;;;;5072424;28;20223;-65
2021/12/15 11:15:09;;;;;;;33.10;19.70;;;10.20;99.90;;;;;;5075342;28;20219;-65
2021/12/15 11:17:41;;;;;;;34.97;22.03;;;10.20;99.90;;;;;;5071033;28;20223;-65
2021/12/15 11:20:15;;;;;;;32.80;20.30;;;10.20;99.90;;;;;;5064213;28;20257;-65
2021/12/15 11:22:53;;;;;;;37.70;21.43;;;10.20;99.90;;;;;;5064802;28;20208;-65
2021/12/15 11:25:34;;;;;;;35.40;21.97;;;10.20;99.90;;;;;;5080007;28;20257;-65
2021/12/15 11:28:05;;;;;;;33.73;21.03;;;10.20;99.90;;;;;;5082751;28;20195;-65
2021/12/15 11:30:40;;;;;;;37.33;21.37;;;10.20;99.90;;;;;;5076690;28;20727;-65
2021/12/15 11:33:12;;;;;;;33.10;21.10;;;10.20;99.90;;;;;;5069187;28;20223;-65
2021/12/15 11:35:45;;;;;;;38.40;23.07;;;10.20;99.90;;;;;;5063127;28;20192;-65
2021/12/15 11:38:20;;;;;;;32.53;20.60;;;10.30;99.90;;;;;;5064861;28;20249;-65
2021/12/15 11:40:53;;;;;;;39.17;20.87;;;10.30;99.90;;;;;;5063933;28;20746;-65
2021/12/15 11:43:30;;;;;;;35.77;21.13;;;10.30;99.90;;;;;;5070299;28;20195;-65
2021/12/15 11:46:00;;;;;;;34.60;20.20;;;10.20;99.90;;;;;;5081070;28;20203;-65
2021/12/15 11:48:33;;;;;;;34.73;20.97;;;10.20;99.90;;;;;;5064261;28;20195;-65
2021/12/15 11:51:04;;;;;;;34.30;20.83;;;10.30;99.90;;;;;;5067709;28;20222;-65
2021/12/15 11:53:38;;;;;;;31.37;20.47;;;10.20;99.90;;;;;;5068479;28;20217;-65
2021/12/15 11:56:21;;;;;;;36.03;21.83;;;10.20;99.90;;;;;;5076128;28;20257;-65
2021/12/15 11:58:53;;;;;;;34.87;20.40;;;10.20;99.90;;;;;;5065697;28;20210;-65
2021/12/15 12:01:58;;;;;;;33.23;20.00;;;10.30;99.90;;;;;;5062066;28;20620;-65
2021/12/15 12:04:32;;;;;;;32.00;20.23;;;10.30;99.90;;;;;;5057225;28;20279;-65
2021/12/15 12:07:23;;;;;;;33.40;20.20;;;10.30;99.90;;;;;;5062975;28;20204;-65
2021/12/15 12:09:55;;;;;;;31.13;20.33;;;10.30;99.90;;;;;;5063921;28;20275;-65
2021/12/15 12:12:29;;;;;;;33.70;19.93;;;10.30;99.90;;;;;;5059635;28;20220;-65
2021/12/15 12:14:57;;;;;;;33.13;20.60;;;10.40;99.90;;;;;;5062317;28;20207;-65
2021/12/15 12:17:30;;;;;;;30.23;20.20;;;10.40;99.90;;;;;;5061975;28;20739;-65
2021/12/15 12:20:02;;;;;;;33.13;20.90;;;10.40;99.90;;;;;;5064496;28;20250;-65
2021/12/15 12:22:34;;;;;;;34.87;20.50;;;10.40;99.90;;;;;;5064190;28;20196;-65
2021/12/15 12:25:07;;;;;;;30.37;20.20;;;10.40;99.90;;;;;;5065064;28;20879;-65
2021/12/15 12:27:37;;;;;;;32.33;21.43;;;10.50;99.90;;;;;;5064727;28;20232;-65
2021/12/15 12:30:10;;;;;;;34.03;19.43;;;10.40;99.90;;;;;;5065178;28;20208;-65
2021/12/15 12:32:40;;;;;;;29.40;19.87;;;10.50;99.90;;;;;;5066616;28;20203;-65
2021/12/15 12:35:12;;;;;;;32.20;18.93;;;10.50;99.90;;;;;;5068786;28;20284;-65
2021/12/15 12:37:44;;;;;;;28.83;18.93;;;10.40;99.90;;;;;;5070353;28;20264;-65
2021/12/15 12:40:21;;;;;;;29.47;19.20;;;10.40;99.90;;;;;;5069960;28;20232;-65
2021/12/15 12:42:51;;;;;;;31.10;19.90;;;10.50;99.90;;;;;;5069069;28;20728;-65
2021/12/15 12:45:27;;;;;;;26.80;18.27;;;10.50;99.90;;;;;;5069780;28;20200;-65
2021/12/15 12:48:10;;;;;;;30.93;18.30;;;10.50;99.90;;;;;;5068633;28;20281;-65
2021/12/15 12:59:42;;;;;;;29.63;18.03;;;10.50;99.90;;;;;;5068615;28;20560;-65
2021/12/15 13:02:41;;;;;;;29.00;19.47;;;10.50;99.90;;;;;;5062859;28;20231;-65
2021/12/15 13:05:31;;;;;;;35.40;21.00;;;10.50;99.90;;;;;;5069805;28;20535;-65
2021/12/15 13:08:03;;;;;;;32.73;20.33;;;10.50;99.90;;;;;;5072945;28;20283;-65
2021/12/15 13:11:06;;;;;;;32.37;21.43;;;10.50;99.90;;;;;;5069186;28;20204;-65
2021/12/15 13:13:39;;;;;;;32.43;20.40;;;10.60;99.90;;;;;;5055085;28;21181;-65
2021/12/15 13:16:10;;;;;;;33.60;19.73;;;10.60;99.90;;;;;;5068877;28;20215;-65
2021/12/15 13:18:49;;;;;;;30.23;20.20;;;10.60;99.90;;;;;;5071156;28;20254;-65
2021/12/15 13:21:22;;;;;;;31.97;20.53;;;10.60;99.90;;;;;;5067686;28;20691;-65
2021/12/15 13:23:59;;;;;;;34.03;20.67;;;10.50;99.90;;;;;;5069392;28;20192;-65
2021/12/15 13:29:48;;;;;;;44.60;30.20;;;10.60;99.90;;;;;;5065971;28;20195;-66
2021/12/15 13:32:17;;;;;;;34.00;21.50;;;10.60;99.90;;;;;;5072198;28;20733;-65
2021/12/15 13:34:50;;;;;;;60.63;40.80;;;10.50;99.90;;;;;;5062746;28;20572;-65
2021/12/15 13:37:52;;;;;;;37.87;23.13;;;10.50;99.90;;;;;;5073680;28;20835;-65
2021/12/15 13:40:55;;;;;;;32.33;20.63;;;10.50;99.90;;;;;;5070194;28;20199;-65
2021/12/15 13:43:51;;;;;;;31.67;19.93;;;10.50;99.90;;;;;;5061213;28;20212;-65
2021/12/15 13:46:39;;;;;;;33.53;20.63;;;10.50;99.90;;;;;;5061854;28;20211;-65
2021/12/15 13:49:26;;;;;;;34.67;20.97;;;10.50;99.90;;;;;;5071422;28;20672;-65
2021/12/15 13:52:18;;;;;;;31.37;20.13;;;10.50;99.90;;;;;;5067372;28;20207;-65
2021/12/15 13:55:04;;;;;;;30.87;20.03;;;10.50;99.90;;;;;;5070927;28;20223;-65
2021/12/15 13:57:37;;;;;;;37.00;21.00;;;10.40;99.90;;;;;;5069788;28;20208;-65
2021/12/15 14:00:19;;;;;;;33.37;22.20;;;10.40;99.90;;;;;;5069271;28;20567;-65
2021/12/15 14:03:01;;;;;;;31.10;19.77;;;10.40;99.90;;;;;;5074649;28;20196;-65
2021/12/15 14:05:32;;;;;;;38.20;23.67;;;10.40;99.90;;;;;;5067845;28;20824;-65
2021/12/15 14:08:05;;;;;;;42.43;22.27;;;10.40;99.90;;;;;;5067103;28;20249;-65
2021/12/15 14:11:09;;;;;;;32.20;21.83;;;10.30;99.90;;;;;;5056027;28;20562;-65